Time;durP1;ratioP1;P1;durP2;ratioP2;P2;SDS_P1;SDS_P2;PMS_P1;PMS_P2;Temp;Humidity;BMP_temperature;BMP_pressure;BME280_temperature;BME280_humidity;BME280_pressure;Samples;Min_cycle;Max_cycle;Signal;HPM_P1;HPM_P2
2023/12/19 00:00:59;;;;;;;6.73;5.93;;;6.20;99.90;;;;;;5046326;28;20234;-70
2023/12/19 00:03:27;;;;;;;5.97;5.43;;;6.20;99.90;;;;;;5033562;28;20287;-70
2023/12/19 00:05:54;;;;;;;5.40;4.90;;;6.20;99.90;;;;;;5027137;28;20300;-70
2023/12/19 00:08:19;;;;;;;4.83;4.40;;;6.20;99.90;;;;;;5026679;28;20323;-69
2023/12/19 00:10:47;;;;;;;5.07;4.50;;;6.20;99.90;;;;;;5033759;28;20299;-70
2023/12/19 00:13:13;;;;;;;5.60;4.80;;;6.30;99.90;;;;;;5046275;28;20547;-69
2023/12/19 00:15:41;;;;;;;5.03;4.57;;;6.20;99.90;;;;;;5048807;28;20208;-69
2023/12/19 00:18:07;;;;;;;4.63;4.30;;;6.20;99.90;;;;;;5049572;28;20299;-69
2023/12/19 00:20:36;;;;;;;4.97;4.57;;;6.20;99.90;;;;;;5049891;28;20322;-69
2023/12/19 00:23:03;;;;;;;5.03;4.60;;;6.20;99.90;;;;;;5050144;28;20250;-69
2023/12/19 00:25:31;;;;;;;4.40;4.10;;;6.20;99.90;;;;;;5050014;28;20207;-69
2023/12/19 00:27:59;;;;;;;4.67;4.27;;;6.20;99.90;;;;;;5040385;28;20227;-69
2023/12/19 00:30:26;;;;;;;4.37;3.97;;;6.20;99.90;;;;;;5030123;28;20299;-69
2023/12/19 00:32:53;;;;;;;4.30;3.90;;;6.10;99.90;;;;;;5030208;28;20201;-69
2023/12/19 00:35:20;;;;;;;4.53;4.13;;;6.10;99.90;;;;;;5029482;28;20323;-69
2023/12/19 00:37:49;;;;;;;5.83;3.93;;;6.10;99.90;;;;;;5049321;28;20209;-69
2023/12/19 00:40:16;;;;;;;4.20;3.80;;;6.10;99.90;;;;;;5048751;28;20239;-69
2023/12/19 00:42:42;;;;;;;3.83;3.53;;;6.10;99.90;;;;;;5048863;28;20319;-69
2023/12/19 00:45:11;;;;;;;6.00;3.53;;;6.10;99.90;;;;;;5049015;28;20673;-70
2023/12/19 00:47:38;;;;;;;4.23;3.93;;;6.10;99.90;;;;;;5049385;28;20266;-69
2023/12/19 00:50:07;;;;;;;4.13;3.83;;;6.10;99.90;;;;;;5048900;28;20200;-69
2023/12/19 00:52:34;;;;;;;4.37;4.03;;;6.20;99.90;;;;;;5049533;28;20235;-69
2023/12/19 00:55:03;;;;;;;3.87;3.57;;;6.20;99.90;;;;;;5048791;28;20299;-69
2023/12/19 00:57:29;;;;;;;4.07;3.77;;;6.20;99.90;;;;;;5049351;28;20630;-69
2023/12/19 00:59:56;;;;;;;3.97;3.60;;;6.20;99.90;;;;;;5047129;28;20295;-69
2023/12/19 01:02:24;;;;;;;4.33;3.93;;;6.20;99.90;;;;;;5028961;28;20661;-70
2023/12/19 01:04:51;;;;;;;4.13;3.73;;;6.20;99.90;;;;;;5029079;28;20546;-69
2023/12/19 01:07:18;;;;;;;3.87;3.50;;;6.20;99.90;;;;;;5029165;28;20213;-69
2023/12/19 01:09:44;;;;;;;5.67;3.63;;;6.30;99.90;;;;;;5028763;28;20320;-69
2023/12/19 01:12:13;;;;;;;4.17;3.77;;;6.30;99.90;;;;;;5047498;28;20303;-70
2023/12/19 01:14:40;;;;;;;4.10;3.63;;;6.30;99.90;;;;;;5048598;28;20208;-70
2023/12/19 01:17:07;;;;;;;3.33;3.13;;;6.30;99.90;;;;;;5048812;28;20295;-70
2023/12/19 01:19:34;;;;;;;3.70;3.50;;;6.30;99.90;;;;;;5048451;28;20294;-69
2023/12/19 01:22:02;;;;;;;4.10;3.80;;;6.30;99.90;;;;;;5047239;28;20702;-70
2023/12/19 01:24:29;;;;;;;4.10;3.80;;;6.40;99.90;;;;;;5048784;28;20208;-70
2023/12/19 01:26:56;;;;;;;9.10;3.63;;;6.40;99.90;;;;;;5047997;28;20248;-70
2023/12/19 01:29:25;;;;;;;7.47;3.40;;;6.40;99.90;;;;;;5048203;28;20208;-69
2023/12/19 01:31:53;;;;;;;4.53;3.80;;;6.40;99.90;;;;;;5037482;28;20311;-70
2023/12/19 01:34:20;;;;;;;5.77;4.00;;;6.40;99.90;;;;;;5047138;28;20293;-69
2023/12/19 01:36:48;;;;;;;4.37;3.73;;;6.40;99.90;;;;;;5047992;28;20286;-69
2023/12/19 01:39:15;;;;;;;3.73;3.43;;;6.30;99.90;;;;;;5048306;28;20631;-69
2023/12/19 01:41:42;;;;;;;4.63;4.23;;;6.30;99.90;;;;;;5042632;28;20274;-69
2023/12/19 01:44:18;;;;;;;4.17;3.83;;;6.30;99.90;;;;;;5048215;28;20676;-69
2023/12/19 01:46:47;;;;;;;4.30;3.90;;;6.30;99.90;;;;;;5048044;28;20241;-69
2023/12/19 01:49:14;;;;;;;4.13;3.73;;;6.30;99.90;;;;;;5047920;28;20306;-69
2023/12/19 01:51:41;;;;;;;4.17;3.87;;;6.30;99.90;;;;;;5048042;28;20346;-69
2023/12/19 01:54:09;;;;;;;4.20;3.80;;;6.30;99.90;;;;;;5047914;28;20313;-69
2023/12/19 01:56:37;;;;;;;3.73;3.43;;;6.30;99.90;;;;;;5047923;28;20571;-69
2023/12/19 01:59:05;;;;;;;4.00;3.63;;;6.30;99.90;;;;;;5047935;28;20302;-68
2023/12/19 02:01:34;;;;;;;4.63;4.00;;;6.40;99.90;;;;;;5033618;28;20236;-68
2023/12/19 02:04:03;;;;;;;4.00;3.70;;;6.30;99.90;;;;;;5027770;28;20255;-68
2023/12/19 02:06:33;;;;;;;3.93;3.53;;;6.40;99.90;;;;;;5027744;28;20205;-68
2023/12/19 02:09:01;;;;;;;3.80;3.50;;;6.40;99.90;;;;;;5027401;28;20336;-68
2023/12/19 02:11:28;;;;;;;4.27;3.80;;;6.40;99.90;;;;;;5040411;28;20212;-68
2023/12/19 02:13:56;;;;;;;4.13;3.57;;;6.50;99.90;;;;;;5047684;28;20291;-69
2023/12/19 02:16:24;;;;;;;4.07;3.67;;;6.50;99.90;;;;;;5047548;28;20247;-68
2023/12/19 02:19:02;;;;;;;4.77;3.77;;;6.50;99.90;;;;;;5046021;28;20204;-68
2023/12/19 02:21:29;;;;;;;4.07;3.80;;;6.50;99.90;;;;;;5047233;28;20311;-68
2023/12/19 02:23:58;;;;;;;3.63;3.37;;;6.60;99.90;;;;;;5029042;28;20292;-68
2023/12/19 02:26:26;;;;;;;4.33;3.93;;;6.60;99.90;;;;;;5027311;28;20267;-68
2023/12/19 02:28:52;;;;;;;3.90;3.60;;;6.50;99.90;;;;;;5063170;28;20937;-68
2023/12/19 02:31:20;;;;;;;4.30;4.00;;;6.50;99.90;;;;;;5055876;28;20574;-68
2023/12/19 02:33:47;;;;;;;4.70;4.37;;;6.60;99.90;;;;;;5047277;28;20212;-68
2023/12/19 02:36:16;;;;;;;4.17;3.87;;;6.60;99.90;;;;;;5046735;28;20219;-68
2023/12/19 02:38:43;;;;;;;4.70;4.20;;;6.60;99.90;;;;;;5046475;28;20207;-69
2023/12/19 02:41:12;;;;;;;4.63;4.33;;;6.60;99.90;;;;;;5046806;28;20667;-69
2023/12/19 02:43:38;;;;;;;4.40;4.00;;;6.60;99.90;;;;;;5031463;28;20821;-69
2023/12/19 02:46:06;;;;;;;4.67;4.27;;;6.60;99.90;;;;;;5043814;28;20232;-69
2023/12/19 02:48:33;;;;;;;4.80;4.40;;;6.70;99.90;;;;;;5047121;28;20208;-69
2023/12/19 02:51:00;;;;;;;5.27;4.73;;;6.70;99.90;;;;;;5046906;28;20644;-69
2023/12/19 02:53:28;;;;;;;4.77;4.37;;;6.70;99.90;;;;;;5047060;28;20247;-69
2023/12/19 02:55:55;;;;;;;5.00;4.50;;;6.70;99.90;;;;;;5041523;28;20283;-69
2023/12/19 02:58:23;;;;;;;4.47;4.07;;;6.70;99.90;;;;;;5027196;28;20284;-69
2023/12/19 03:00:50;;;;;;;4.47;4.17;;;6.70;99.90;;;;;;5033700;28;20227;-69
2023/12/19 03:03:17;;;;;;;4.67;4.27;;;6.80;99.90;;;;;;5046901;28;20219;-69
2023/12/19 03:05:44;;;;;;;5.23;4.77;;;6.80;99.90;;;;;;5046926;28;20311;-69
2023/12/19 03:08:11;;;;;;;5.20;4.63;;;6.80;99.90;;;;;;5032394;28;20232;-69
2023/12/19 03:10:38;;;;;;;5.20;4.70;;;6.80;99.90;;;;;;5032673;28;20311;-69
2023/12/19 03:13:05;;;;;;;4.70;4.30;;;6.80;99.90;;;;;;5046136;28;20212;-69
2023/12/19 03:15:33;;;;;;;5.07;4.60;;;6.80;99.90;;;;;;5046655;28;20258;-69
2023/12/19 03:18:00;;;;;;;5.47;4.87;;;6.80;99.90;;;;;;5046213;28;20212;-69
2023/12/19 03:20:27;;;;;;;5.20;4.80;;;6.80;99.90;;;;;;5046253;28;20762;-69
2023/12/19 03:22:54;;;;;;;5.83;4.87;;;6.80;99.90;;;;;;5046414;28;20227;-69
2023/12/19 03:25:21;;;;;;;5.33;4.83;;;6.90;99.90;;;;;;5066228;28;20302;-69
2023/12/19 03:27:48;;;;;;;5.33;4.93;;;6.90;99.90;;;;;;5053068;28;20218;-69
2023/12/19 03:30:15;;;;;;;6.53;5.73;;;6.90;99.90;;;;;;5046716;28;20398;-69
2023/12/19 03:32:43;;;;;;;5.50;5.00;;;6.90;99.90;;;;;;5041166;28;20738;-70
2023/12/19 03:35:11;;;;;;;5.13;4.73;;;6.90;99.90;;;;;;5035122;28;20201;-70
2023/12/19 03:37:37;;;;;;;5.17;4.77;;;6.90;99.90;;;;;;5026668;28;20546;-70
2023/12/19 03:40:06;;;;;;;5.87;5.37;;;6.90;99.90;;;;;;5043460;28;20212;-70
2023/12/19 03:42:33;;;;;;;5.57;5.00;;;6.90;99.90;;;;;;5046309;28;20242;-70
2023/12/19 03:45:00;;;;;;;5.33;4.93;;;6.90;99.90;;;;;;5046191;28;20721;-70
2023/12/19 03:47:27;;;;;;;5.67;5.07;;;6.90;99.90;;;;;;5046626;28;20205;-69
2023/12/19 03:49:55;;;;;;;5.60;5.10;;;6.90;99.90;;;;;;5049262;28;20236;-69
2023/12/19 03:52:23;;;;;;;4.90;4.50;;;6.90;99.90;;;;;;5050358;28;20316;-69
2023/12/19 03:54:51;;;;;;;5.47;4.97;;;6.90;99.90;;;;;;5048303;28;20200;-69
2023/12/19 03:57:18;;;;;;;5.47;4.80;;;6.90;99.90;;;;;;5050413;28;20609;-69
2023/12/19 03:59:45;;;;;;;6.03;5.40;;;6.90;99.90;;;;;;5050399;28;20218;-69
2023/12/19 04:02:11;;;;;;;5.53;5.00;;;6.90;99.90;;;;;;5050014;28;20232;-69
2023/12/19 04:04:38;;;;;;;6.03;5.50;;;6.90;99.90;;;;;;5043482;28;20207;-69
2023/12/19 04:07:07;;;;;;;6.13;5.33;;;6.90;99.90;;;;;;5033849;28;20323;-69
2023/12/19 04:09:34;;;;;;;6.23;5.37;;;6.90;99.90;;;;;;5041553;28;20228;-69
2023/12/19 04:12:02;;;;;;;5.50;5.00;;;7.00;99.90;;;;;;5046747;28;20211;-69
2023/12/19 04:14:30;;;;;;;5.53;5.03;;;7.00;99.90;;;;;;5050291;28;20208;-69
2023/12/19 04:16:56;;;;;;;5.73;5.23;;;7.00;99.90;;;;;;5049413;28;20299;-69
2023/12/19 04:19:23;;;;;;;6.13;5.60;;;7.00;99.90;;;;;;5050923;28;20300;-69
2023/12/19 04:21:51;;;;;;;6.17;5.67;;;6.90;99.90;;;;;;5069465;28;20231;-69
2023/12/19 04:24:19;;;;;;;6.23;5.63;;;6.90;99.90;;;;;;5054575;28;20240;-69
2023/12/19 04:26:47;;;;;;;6.07;5.57;;;7.00;99.90;;;;;;5049929;28;20200;-69
2023/12/19 04:29:16;;;;;;;5.93;5.43;;;7.00;99.90;;;;;;5049710;28;20262;-69
2023/12/19 04:31:43;;;;;;;6.10;5.60;;;7.00;99.90;;;;;;5039739;28;20308;-70
2023/12/19 04:34:10;;;;;;;6.93;6.23;;;7.00;99.90;;;;;;5029776;28;20308;-69
2023/12/19 04:36:37;;;;;;;6.30;5.70;;;7.00;99.90;;;;;;5049284;28;20302;-69
2023/12/19 04:39:04;;;;;;;5.77;5.27;;;7.00;99.90;;;;;;5032584;28;20921;-70
2023/12/19 04:41:33;;;;;;;6.03;5.50;;;7.00;99.90;;;;;;5042306;28;20750;-69
2023/12/19 04:44:00;;;;;;;6.17;5.60;;;7.00;99.90;;;;;;5047992;28;20216;-70
2023/12/19 04:46:27;;;;;;;6.57;5.83;;;7.00;99.90;;;;;;5049202;28;20734;-70
2023/12/19 04:48:55;;;;;;;7.07;5.80;;;7.10;99.90;;;;;;5049842;28;20235;-70
2023/12/19 04:51:23;;;;;;;6.47;5.90;;;7.10;99.90;;;;;;5041889;28;20200;-70
2023/12/19 04:53:50;;;;;;;6.10;5.60;;;7.10;99.90;;;;;;5029102;28;20201;-70
2023/12/19 04:56:17;;;;;;;6.40;5.90;;;7.10;99.90;;;;;;5029329;28;20255;-70
2023/12/19 04:58:46;;;;;;;6.03;5.43;;;7.10;99.90;;;;;;5038648;28;20203;-70
2023/12/19 05:01:13;;;;;;;6.40;5.80;;;7.10;99.90;;;;;;5041737;28;20228;-70
2023/12/19 05:03:41;;;;;;;8.63;6.87;;;7.10;99.90;;;;;;5029261;28;20291;-70
2023/12/19 05:06:08;;;;;;;8.13;6.67;;;7.10;99.90;;;;;;5029058;28;20205;-70
2023/12/19 05:08:35;;;;;;;6.37;5.77;;;7.10;99.90;;;;;;5032647;28;20315;-70
2023/12/19 05:11:01;;;;;;;6.87;6.00;;;7.10;99.90;;;;;;5048947;28;20234;-69
2023/12/19 05:13:28;;;;;;;7.00;6.30;;;7.10;99.90;;;;;;5048902;28;20307;-69
2023/12/19 05:15:57;;;;;;;6.47;5.73;;;7.10;99.90;;;;;;5052338;28;20301;-69
2023/12/19 05:18:23;;;;;;;7.23;6.53;;;7.10;99.90;;;;;;5068761;28;20297;-69
2023/12/19 05:20:50;;;;;;;7.37;6.23;;;7.10;99.90;;;;;;5050111;28;20243;-69
2023/12/19 05:23:17;;;;;;;6.63;6.03;;;7.20;99.90;;;;;;5041267;28;20315;-69
2023/12/19 05:25:44;;;;;;;7.13;6.43;;;7.20;99.90;;;;;;5029080;28;20311;-70
2023/12/19 05:28:11;;;;;;;7.00;6.30;;;7.20;99.90;;;;;;5028647;28;20263;-70
2023/12/19 05:30:38;;;;;;;6.90;6.30;;;7.20;99.90;;;;;;5038477;28;20247;-70
2023/12/19 05:33:06;;;;;;;6.93;6.30;;;7.20;99.90;;;;;;5048572;28;20298;-70
2023/12/19 05:35:33;;;;;;;7.77;6.90;;;7.20;99.90;;;;;;5048261;28;20204;-70
2023/12/19 05:38:01;;;;;;;7.10;6.40;;;7.20;99.90;;;;;;5048515;28;20287;-70
2023/12/19 05:40:28;;;;;;;6.73;6.13;;;7.20;99.90;;;;;;5048534;28;20261;-70
2023/12/19 05:42:57;;;;;;;7.50;6.60;;;7.20;99.90;;;;;;5044364;28;20682;-70
2023/12/19 05:45:24;;;;;;;5.80;5.27;;;7.20;99.90;;;;;;5031417;28;20200;-70
2023/12/19 05:47:51;;;;;;;7.23;6.53;;;7.20;99.90;;;;;;5048051;28;20299;-70
2023/12/19 05:50:20;;;;;;;7.77;7.07;;;7.20;99.90;;;;;;5047704;28;20243;-70
2023/12/19 05:52:46;;;;;;;8.57;5.97;;;7.20;99.90;;;;;;5048041;28;20312;-69
2023/12/19 05:55:13;;;;;;;6.67;5.97;;;7.20;99.90;;;;;;5047430;28;20210;-70
2023/12/19 05:57:40;;;;;;;7.93;7.13;;;7.20;99.90;;;;;;5048166;28;20208;-70
2023/12/19 06:00:08;;;;;;;7.63;6.83;;;7.20;99.90;;;;;;5047834;28;20231;-70
2023/12/19 06:02:35;;;;;;;6.97;6.37;;;7.20;99.90;;;;;;5032424;28;20311;-70
2023/12/19 06:05:07;;;;;;;6.80;6.10;;;7.20;99.90;;;;;;5032853;28;20228;-70
2023/12/19 06:07:35;;;;;;;6.70;6.10;;;7.20;99.90;;;;;;5047644;28;20214;-70
2023/12/19 06:10:02;;;;;;;7.27;6.57;;;7.20;99.90;;;;;;5047787;28;20196;-68
2023/12/19 06:12:29;;;;;;;5.97;5.40;;;7.20;99.90;;;;;;5052812;28;20218;-68
2023/12/19 06:14:56;;;;;;;7.77;6.00;;;7.20;99.90;;;;;;5067497;28;20289;-68
2023/12/19 06:17:23;;;;;;;6.50;5.90;;;7.20;99.90;;;;;;5052264;28;20315;-68
2023/12/19 06:19:50;;;;;;;6.20;5.60;;;7.20;99.90;;;;;;5047551;28;20572;-68
2023/12/19 06:22:17;;;;;;;6.10;5.50;;;7.20;99.90;;;;;;5047174;28;20307;-69
2023/12/19 06:24:45;;;;;;;5.90;5.40;;;7.10;99.90;;;;;;5033459;28;20296;-69
2023/12/19 06:27:16;;;;;;;5.93;5.43;;;7.20;99.90;;;;;;5030806;28;20303;-70
2023/12/19 06:29:43;;;;;;;6.77;5.30;;;7.20;99.90;;;;;;5047216;28;20211;-69
2023/12/19 06:32:10;;;;;;;5.57;5.17;;;7.20;99.90;;;;;;5047188;28;20317;-69
2023/12/19 06:34:37;;;;;;;6.10;5.60;;;7.20;99.90;;;;;;5047369;28;20211;-69
2023/12/19 06:37:04;;;;;;;6.20;5.70;;;7.20;99.90;;;;;;5047134;28;20295;-69
2023/12/19 06:39:31;;;;;;;6.53;5.97;;;7.20;99.90;;;;;;5045391;28;20754;-69
2023/12/19 06:41:59;;;;;;;6.00;5.50;;;7.20;99.90;;;;;;5045619;28;20258;-69
2023/12/19 06:44:25;;;;;;;6.53;5.93;;;7.20;99.90;;;;;;5047161;28;20204;-69
2023/12/19 06:46:52;;;;;;;6.37;5.87;;;7.20;99.90;;;;;;5047291;28;20200;-69
2023/12/19 06:49:20;;;;;;;6.30;5.70;;;7.20;99.90;;;;;;5047066;28;20234;-69
2023/12/19 06:51:46;;;;;;;6.37;5.77;;;7.20;99.90;;;;;;5047109;28;20291;-70
2023/12/19 06:54:14;;;;;;;6.37;5.87;;;7.20;99.90;;;;;;5031648;28;20209;-70
2023/12/19 06:56:41;;;;;;;6.53;5.93;;;7.20;99.90;;;;;;5039291;28;20200;-70
2023/12/19 06:59:09;;;;;;;6.87;6.27;;;7.30;99.90;;;;;;5047109;28;20243;-70
2023/12/19 07:01:36;;;;;;;6.47;5.97;;;7.20;99.90;;;;;;5046844;28;20290;-69
2023/12/19 07:04:04;;;;;;;6.17;5.67;;;7.30;99.90;;;;;;5046553;28;20235;-69
2023/12/19 07:06:31;;;;;;;5.60;5.10;;;7.30;99.90;;;;;;5046649;28;20204;-69
2023/12/19 07:08:59;;;;;;;6.10;5.50;;;7.30;99.90;;;;;;5046157;28;21005;-70
2023/12/19 07:11:26;;;;;;;6.97;5.73;;;7.40;99.90;;;;;;5046677;28;20217;-70
2023/12/19 07:13:53;;;;;;;5.70;5.20;;;7.30;99.90;;;;;;5045905;28;20240;-70
2023/12/19 07:16:22;;;;;;;5.77;5.30;;;7.30;99.90;;;;;;5046574;28;20303;-70
2023/12/19 07:18:49;;;;;;;6.20;5.27;;;7.30;99.90;;;;;;5046297;28;20741;-69
2023/12/19 07:21:22;;;;;;;5.73;5.33;;;7.40;99.90;;;;;;5030323;28;20240;-70
2023/12/19 07:23:50;;;;;;;6.03;5.47;;;7.40;99.90;;;;;;5036206;28;20818;-70
2023/12/19 07:26:21;;;;;;;5.93;5.43;;;7.40;99.90;;;;;;5041949;28;20211;-70
2023/12/19 07:28:49;;;;;;;5.93;5.43;;;7.40;99.90;;;;;;5040634;28;20235;-69
2023/12/19 07:31:22;;;;;;;5.20;4.80;;;7.40;99.90;;;;;;5033360;28;20208;-69
2023/12/19 07:33:55;;;;;;;5.47;5.00;;;7.40;99.90;;;;;;5033073;28;20279;-69
2023/12/19 07:36:22;;;;;;;5.40;5.00;;;7.40;99.90;;;;;;5033184;28;20657;-69
2023/12/19 07:38:49;;;;;;;5.70;5.20;;;7.30;99.90;;;;;;5033022;28;20730;-69
2023/12/19 07:41:16;;;;;;;5.90;5.40;;;7.30;99.90;;;;;;5044458;28;20313;-70
2023/12/19 07:43:43;;;;;;;6.00;5.50;;;7.30;99.90;;;;;;5053422;28;20284;-70
2023/12/19 07:46:10;;;;;;;5.87;5.37;;;7.20;99.90;;;;;;5053043;28;20303;-70
2023/12/19 07:48:39;;;;;;;5.97;5.40;;;7.10;99.90;;;;;;5052993;28;20295;-69
2023/12/19 07:51:06;;;;;;;6.33;5.70;;;7.00;99.90;;;;;;5040053;28;20205;-69
2023/12/19 07:53:33;;;;;;;6.30;5.80;;;7.00;99.90;;;;;;5034158;28;20232;-69
2023/12/19 07:56:03;;;;;;;6.87;5.80;;;6.90;99.90;;;;;;5046126;28;20250;-69
2023/12/19 07:58:30;;;;;;;6.83;6.17;;;6.90;99.90;;;;;;5052941;28;20208;-69
2023/12/19 08:00:57;;;;;;;6.30;5.80;;;6.90;99.90;;;;;;5035936;28;20196;-69
2023/12/19 08:03:25;;;;;;;6.57;6.00;;;6.90;99.90;;;;;;5032936;28;20286;-69
2023/12/19 08:05:55;;;;;;;6.27;5.77;;;6.90;99.90;;;;;;5059904;28;20225;-69
2023/12/19 08:08:22;;;;;;;9.40;6.43;;;6.80;99.90;;;;;;5066069;28;20244;-69
2023/12/19 08:10:50;;;;;;;6.80;6.10;;;6.80;99.90;;;;;;5053031;28;20258;-69
2023/12/19 08:13:17;;;;;;;6.90;6.30;;;6.80;99.90;;;;;;5052780;28;20295;-69
2023/12/19 08:15:44;;;;;;;7.83;7.03;;;6.80;99.90;;;;;;5048680;28;20613;-69
2023/12/19 08:18:11;;;;;;;7.37;6.70;;;6.80;99.90;;;;;;5035388;28;20308;-69
2023/12/19 08:20:38;;;;;;;7.57;6.87;;;6.80;99.90;;;;;;5044164;28;20608;-69
2023/12/19 08:23:07;;;;;;;8.60;7.00;;;6.80;99.90;;;;;;5046834;28;20319;-69
2023/12/19 08:25:34;;;;;;;7.83;6.83;;;6.80;99.90;;;;;;5052938;28;20295;-69
2023/12/19 08:28:01;;;;;;;9.10;8.20;;;6.80;99.90;;;;;;5052474;28;21042;-69
2023/12/19 08:30:28;;;;;;;7.93;7.13;;;6.80;99.90;;;;;;5052755;28;20215;-69
2023/12/19 08:32:55;;;;;;;10.60;7.40;;;6.80;99.90;;;;;;5039522;28;20201;-69
2023/12/19 08:35:23;;;;;;;8.07;7.30;;;6.80;99.90;;;;;;5047006;28;20235;-69
2023/12/19 08:37:50;;;;;;;9.90;8.20;;;6.80;99.90;;;;;;5039071;28;20203;-68
2023/12/19 08:40:19;;;;;;;9.40;7.40;;;6.80;99.90;;;;;;5041651;28;20204;-69
2023/12/19 08:42:48;;;;;;;8.23;7.23;;;6.80;99.90;;;;;;5038039;28;20309;-69
2023/12/19 08:45:16;;;;;;;8.70;7.73;;;6.80;99.90;;;;;;5040481;28;20592;-70
2023/12/19 08:47:44;;;;;;;8.90;7.77;;;6.80;99.90;;;;;;5037219;28;20197;-70
2023/12/19 08:50:12;;;;;;;9.20;7.40;;;6.70;99.90;;;;;;5038788;28;20193;-69
2023/12/19 08:52:41;;;;;;;8.70;7.87;;;6.70;99.90;;;;;;5039538;28;20200;-70
2023/12/19 08:55:08;;;;;;;9.53;8.03;;;6.80;99.90;;;;;;5045469;28;20295;-70
2023/12/19 08:57:39;;;;;;;10.80;8.07;;;6.80;99.90;;;;;;5049419;28;20247;-71
2023/12/19 09:00:07;;;;;;;10.43;7.73;;;6.90;99.90;;;;;;5048903;28;20239;-70
2023/12/19 09:02:34;;;;;;;9.23;7.80;;;6.80;99.90;;;;;;5049170;28;20207;-70
2023/12/19 09:05:03;;;;;;;8.23;7.43;;;6.90;99.90;;;;;;5048281;28;20293;-70
2023/12/19 09:07:30;;;;;;;7.07;6.40;;;6.90;99.90;;;;;;5048464;28;20247;-71
2023/12/19 09:09:57;;;;;;;6.97;6.27;;;6.90;99.90;;;;;;5048440;28;20818;-70
2023/12/19 09:12:24;;;;;;;7.23;6.53;;;6.90;99.90;;;;;;5043586;28;20830;-70
2023/12/19 09:14:52;;;;;;;6.30;5.80;;;6.90;99.90;;;;;;5035391;28;20813;-69
2023/12/19 09:17:19;;;;;;;6.27;5.67;;;6.90;99.90;;;;;;5037550;28;20241;-70
2023/12/19 09:19:46;;;;;;;6.07;5.57;;;6.80;99.90;;;;;;5041739;28;20287;-70
2023/12/19 09:22:13;;;;;;;5.93;5.33;;;6.90;99.90;;;;;;5048361;28;20204;-69
2023/12/19 09:24:40;;;;;;;5.77;5.23;;;6.90;99.90;;;;;;5048459;28;20334;-69
2023/12/19 09:27:07;;;;;;;6.50;5.77;;;6.90;99.90;;;;;;5046843;28;20222;-69
2023/12/19 09:29:34;;;;;;;5.90;5.40;;;6.90;99.90;;;;;;5049068;28;20228;-70
2023/12/19 09:32:05;;;;;;;5.77;5.27;;;6.80;99.90;;;;;;5033357;28;20719;-70
2023/12/19 09:34:31;;;;;;;5.50;4.97;;;6.80;99.90;;;;;;5028284;28;20205;-70
2023/12/19 09:36:59;;;;;;;5.90;5.40;;;6.80;99.90;;;;;;5028423;28;20205;-70
2023/12/19 09:39:25;;;;;;;6.10;5.53;;;6.80;99.90;;;;;;5038983;28;20231;-70
2023/12/19 09:41:53;;;;;;;5.93;5.40;;;6.80;99.90;;;;;;5047721;28;20307;-70
2023/12/19 09:44:20;;;;;;;5.47;5.03;;;6.80;99.90;;;;;;5047526;28;20690;-70
2023/12/19 09:46:49;;;;;;;6.67;5.73;;;6.70;99.90;;;;;;5028572;28;20208;-70
2023/12/19 09:49:22;;;;;;;6.27;5.67;;;6.70;99.90;;;;;;5027992;28;20208;-69
2023/12/19 09:51:52;;;;;;;9.63;8.63;;;6.70;99.90;;;;;;5028494;28;20209;-70
2023/12/19 09:54:20;;;;;;;6.50;5.90;;;6.60;99.90;;;;;;5039629;28;20204;-70
2023/12/19 09:56:47;;;;;;;7.30;5.53;;;6.70;99.90;;;;;;5048595;28;20208;-69
2023/12/19 09:59:16;;;;;;;5.97;5.40;;;6.60;99.90;;;;;;5068114;28;20209;-70
2023/12/19 10:01:43;;;;;;;5.70;5.20;;;6.60;99.90;;;;;;5053150;28;20299;-70
2023/12/19 10:04:13;;;;;;;5.87;5.27;;;6.60;99.90;;;;;;5046018;28;20825;-70
2023/12/19 10:06:43;;;;;;;6.93;5.53;;;6.50;99.90;;;;;;5047860;28;20298;-70
2023/12/19 10:09:15;;;;;;;6.70;6.00;;;6.50;99.90;;;;;;5047314;28;20231;-70
2023/12/19 10:11:43;;;;;;;8.47;6.30;;;6.50;99.90;;;;;;5047636;28;20587;-70
2023/12/19 10:14:11;;;;;;;6.43;5.83;;;6.40;99.90;;;;;;5047500;28;20674;-70
2023/12/19 10:16:40;;;;;;;7.13;6.53;;;6.50;99.90;;;;;;5047630;28;20212;-70
2023/12/19 10:19:11;;;;;;;7.27;6.53;;;6.40;99.90;;;;;;5047587;28;20778;-69
2023/12/19 10:21:38;;;;;;;9.03;7.10;;;6.40;99.90;;;;;;5047901;28;20192;-69
2023/12/19 10:24:11;;;;;;;8.00;6.87;;;6.30;99.90;;;;;;5046350;28;20267;-68
2023/12/19 10:26:38;;;;;;;7.80;7.00;;;6.30;99.90;;;;;;5047831;28;20196;-69
2023/12/19 10:29:06;;;;;;;8.67;7.23;;;6.20;99.90;;;;;;5047168;28;20824;-69
2023/12/19 10:31:34;;;;;;;9.20;7.40;;;6.20;99.90;;;;;;5047277;28;20209;-69
2023/12/19 10:34:01;;;;;;;8.70;7.87;;;6.20;99.90;;;;;;5045455;28;20295;-69
2023/12/19 10:36:30;;;;;;;8.67;7.57;;;6.20;99.90;;;;;;5044624;28;20205;-69
2023/12/19 10:38:59;;;;;;;8.30;7.50;;;6.20;99.90;;;;;;5031249;28;20296;-69
2023/12/19 10:41:28;;;;;;;11.03;8.73;;;6.20;99.90;;;;;;5039123;28;20224;-69
2023/12/19 10:43:57;;;;;;;10.13;8.20;;;6.30;99.90;;;;;;5046806;28;20644;-69
2023/12/19 10:46:28;;;;;;;11.57;8.53;;;6.30;99.90;;;;;;5033955;28;20667;-69
2023/12/19 10:48:56;;;;;;;10.20;9.10;;;6.20;99.90;;;;;;5031232;28;20292;-69
2023/12/19 10:51:32;;;;;;;14.63;8.17;;;6.20;99.90;;;;;;5025020;28;20299;-69
2023/12/19 10:54:08;;;;;;;11.83;8.50;;;6.30;99.90;;;;;;5041446;28;20202;-69
2023/12/19 10:56:46;;;;;;;10.93;7.97;;;6.30;99.90;;;;;;5040115;28;20294;-69
2023/12/19 10:59:21;;;;;;;9.10;8.20;;;6.30;99.90;;;;;;5025986;28;20184;-69
2023/12/19 11:01:54;;;;;;;11.17;9.30;;;6.30;99.90;;;;;;5030189;28;20188;-69
2023/12/19 11:04:25;;;;;;;12.40;8.70;;;6.40;99.90;;;;;;5037441;28;20224;-67
2023/12/19 11:06:56;;;;;;;11.20;8.80;;;6.40;99.90;;;;;;5036517;28;20240;-68
2023/12/19 11:09:33;;;;;;;10.87;8.40;;;6.40;99.90;;;;;;5042575;28;20263;-68
2023/12/19 11:12:02;;;;;;;9.00;8.07;;;6.40;99.90;;;;;;5038959;28;20205;-68
2023/12/19 11:14:29;;;;;;;9.27;8.30;;;6.50;99.90;;;;;;5025417;28;20287;-68
2023/12/19 11:17:00;;;;;;;8.97;7.93;;;6.40;99.90;;;;;;5031145;28;20276;-68
2023/12/19 11:19:31;;;;;;;9.27;8.20;;;6.50;99.90;;;;;;5035409;28;20734;-68
2023/12/19 11:22:07;;;;;;;9.30;8.30;;;6.50;99.90;;;;;;5044740;28;20196;-68
2023/12/19 11:24:38;;;;;;;11.00;8.03;;;6.50;99.90;;;;;;5044667;28;20229;-68
2023/12/19 11:27:16;;;;;;;9.73;8.73;;;6.50;99.90;;;;;;5044873;28;20223;-68
2023/12/19 11:29:44;;;;;;;9.40;7.80;;;6.50;99.90;;;;;;5025863;28;20200;-68
2023/12/19 11:32:40;;;;;;;10.97;8.20;;;6.60;99.90;;;;;;5028805;28;20231;-68
2023/12/19 11:35:14;;;;;;;10.23;8.50;;;6.50;99.90;;;;;;5039462;28;20215;-68
2023/12/19 11:37:44;;;;;;;9.23;8.23;;;6.50;99.90;;;;;;5024823;28;20306;-68
2023/12/19 11:40:37;;;;;;;9.23;8.23;;;6.60;99.90;;;;;;5035423;28;20219;-68
2023/12/19 11:43:05;;;;;;;11.40;8.13;;;6.60;99.90;;;;;;5041591;28;20287;-68
2023/12/19 11:45:38;;;;;;;9.80;8.73;;;6.60;99.90;;;;;;5044598;28;20354;-68
2023/12/19 11:48:36;;;;;;;10.10;8.37;;;6.60;99.90;;;;;;5025521;28;20240;-68
2023/12/19 11:51:03;;;;;;;10.30;8.53;;;6.60;99.90;;;;;;5054437;28;20203;-68
2023/12/19 11:53:31;;;;;;;9.97;8.97;;;6.60;99.90;;;;;;5060599;28;20208;-68
2023/12/19 11:56:08;;;;;;;10.90;8.90;;;6.60;99.90;;;;;;5044170;28;20295;-68
2023/12/19 11:58:36;;;;;;;9.90;8.90;;;6.60;99.90;;;;;;5044034;28;20231;-68
2023/12/19 12:01:04;;;;;;;13.63;10.30;;;6.60;99.90;;;;;;5040471;28;20756;-68
2023/12/19 12:03:31;;;;;;;12.47;9.67;;;6.60;99.90;;;;;;5024328;28;20287;-68
2023/12/19 12:05:58;;;;;;;14.17;10.07;;;6.60;99.90;;;;;;5024874;28;20233;-68
2023/12/19 12:08:25;;;;;;;11.77;9.57;;;6.60;99.90;;;;;;5027258;28;20324;-68
2023/12/19 12:11:00;;;;;;;12.43;9.10;;;6.60;99.90;;;;;;5041021;28;20663;-68
2023/12/19 12:13:28;;;;;;;12.87;9.87;;;6.60;99.90;;;;;;5047754;28;20200;-68
2023/12/19 12:15:57;;;;;;;13.73;11.17;;;6.60;99.90;;;;;;5047735;28;20211;-68
2023/12/19 12:18:26;;;;;;;13.33;10.57;;;6.60;99.90;;;;;;5047773;28;20740;-67
2023/12/19 12:20:55;;;;;;;11.63;10.17;;;6.60;99.90;;;;;;5047798;28;20228;-68
2023/12/19 12:23:22;;;;;;;13.07;10.20;;;6.60;99.90;;;;;;5047793;28;20215;-68
2023/12/19 12:25:56;;;;;;;14.63;10.40;;;6.50;99.90;;;;;;5047626;28;20228;-68
2023/12/19 12:28:26;;;;;;;16.33;12.10;;;6.60;99.90;;;;;;5048177;28;20299;-68
2023/12/19 12:30:57;;;;;;;12.33;10.40;;;6.50;99.90;;;;;;5047580;28;20208;-68
2023/12/19 12:33:27;;;;;;;12.00;9.90;;;6.60;99.90;;;;;;5047271;28;20240;-68
2023/12/19 12:35:55;;;;;;;14.33;10.70;;;6.60;99.90;;;;;;5044482;28;20224;-69
2023/12/19 12:38:23;;;;;;;12.37;10.70;;;6.60;99.90;;;;;;5039278;28;20608;-68
2023/12/19 12:40:56;;;;;;;13.83;11.07;;;6.60;99.90;;;;;;5041338;28;20316;-68
2023/12/19 12:43:34;;;;;;;14.30;10.73;;;6.60;99.90;;;;;;5037487;28;20233;-68
2023/12/19 12:46:08;;;;;;;14.63;10.73;;;6.70;99.90;;;;;;5038489;28;20694;-68
2023/12/19 12:48:35;;;;;;;11.47;10.00;;;6.70;99.90;;;;;;5036279;28;20201;-68
2023/12/19 12:51:04;;;;;;;14.67;11.10;;;6.70;99.90;;;;;;5046493;28;20216;-68
2023/12/19 12:53:31;;;;;;;14.10;10.40;;;6.70;99.90;;;;;;5038096;28;20316;-68
2023/12/19 12:56:13;;;;;;;13.83;10.73;;;6.70;99.90;;;;;;5034802;28;20209;-68
2023/12/19 12:58:41;;;;;;;13.03;11.50;;;6.70;99.90;;;;;;5034837;28;20265;-69
2023/12/19 13:01:10;;;;;;;13.63;10.80;;;6.70;99.90;;;;;;5047898;28;20200;-68